createdAt,value
2017-09-07T00:01:25.877Z,88.14
2017-09-07T00:04:00.520Z,88.35
2017-09-07T00:06:35.208Z,88.55
2017-09-07T00:09:09.913Z,88.77
2017-09-07T00:11:44.436Z,89.12
2017-09-07T00:14:20.195Z,89.62
2017-09-07T00:16:54.850Z,90.34
2017-09-07T00:19:29.536Z,90.65
2017-09-07T00:22:04.276Z,90.79
2017-09-07T00:24:39.937Z,91.02
2017-09-07T00:27:14.585Z,90.93
2017-09-07T00:29:49.337Z,91.07
2017-09-07T00:32:23.843Z,91.08
2017-09-07T00:34:58.553Z,91.10
2017-09-07T00:37:33.425Z,91.52
2017-09-07T00:40:08.126Z,91.61
2017-09-07T00:42:42.752Z,91.85
2017-09-07T00:45:17.065Z,92.06
2017-09-07T00:47:51.981Z,92.13
2017-09-07T00:50:26.366Z,92.25
2017-09-07T00:53:00.915Z,92.51
2017-09-07T00:55:35.989Z,92.91
2017-09-07T00:58:10.505Z,93.25
2017-09-07T01:00:45.345Z,93.22
2017-09-07T01:03:20.297Z,93.21
2017-09-07T01:05:55.024Z,93.18
2017-09-07T01:08:29.412Z,92.76
2017-09-07T01:11:04.128Z,92.96
2017-09-07T01:13:38.893Z,93.23
2017-09-07T01:16:13.793Z,93.21
2017-09-07T01:18:48.402Z,93.05
2017-09-07T01:21:22.776Z,93.11
2017-09-07T01:23:57.312Z,93.11
2017-09-07T01:26:31.989Z,93.11
2017-09-07T01:29:06.698Z,93.36
2017-09-07T01:31:42.837Z,93.54
2017-09-07T01:34:17.092Z,93.62
2017-09-07T01:36:52.044Z,93.70
2017-09-07T01:39:26.977Z,93.83
2017-09-07T01:42:01.705Z,93.83
2017-09-07T01:44:36.425Z,93.87
2017-09-07T01:47:11.360Z,94.03
2017-09-07T01:49:46.215Z,94.19
2017-09-07T01:52:21.061Z,94.24
2017-09-07T01:54:55.373Z,94.12
2017-09-07T01:57:30.237Z,94.27
2017-09-07T02:00:04.998Z,94.45
2017-09-07T02:02:39.829Z,94.43
2017-09-07T02:05:14.432Z,94.33
2017-09-07T02:07:48.989Z,94.59
2017-09-07T02:10:24.014Z,94.52
2017-09-07T02:12:58.734Z,94.37
2017-09-07T02:15:33.516Z,94.19
2017-09-07T02:18:08.328Z,94.36
2017-09-07T02:20:42.880Z,94.53
2017-09-07T02:23:17.620Z,94.62
2017-09-07T02:25:51.977Z,94.42
2017-09-07T02:28:26.449Z,94.26
2017-09-07T02:31:01.285Z,94.21
2017-09-07T02:33:36.108Z,94.21
2017-09-07T02:36:10.842Z,94.52
2017-09-07T02:38:46.224Z,94.25
2017-09-07T02:41:21.050Z,94.33
2017-09-07T02:43:56.436Z,94.33
2017-09-07T02:46:31.136Z,94.46
2017-09-07T02:49:05.809Z,94.60
2017-09-07T02:51:40.560Z,94.70
2017-09-07T02:54:15.540Z,94.86
2017-09-07T02:56:50.049Z,94.49
2017-09-07T02:59:24.556Z,94.71
2017-09-07T03:01:59.281Z,94.83
2017-09-07T03:04:33.982Z,94.63
2017-09-07T03:07:08.760Z,94.02
2017-09-07T03:09:43.516Z,94.03
2017-09-07T03:12:18.269Z,94.06
2017-09-07T03:14:53.027Z,94.11
2017-09-07T03:17:27.876Z,94.08
2017-09-07T03:20:02.661Z,94.06
2017-09-07T03:22:37.436Z,94.06
2017-09-07T03:25:12.228Z,94.10
2017-09-07T03:27:46.695Z,94.18
2017-09-07T03:30:22.726Z,94.15
2017-09-07T03:32:57.168Z,93.68
2017-09-07T03:35:31.822Z,93.62
2017-09-07T03:38:06.385Z,93.82
2017-09-07T03:40:41.160Z,93.83
2017-09-07T03:43:15.806Z,93.96
2017-09-07T03:45:51.765Z,94.20
2017-09-07T03:48:26.469Z,94.15
2017-09-07T03:51:01.216Z,94.17
2017-09-07T03:53:35.996Z,94.00
2017-09-07T03:56:10.721Z,94.23
2017-09-07T03:58:45.585Z,94.25
2017-09-07T04:01:20.280Z,94.33
2017-09-07T04:03:54.941Z,94.12
2017-09-07T04:06:29.605Z,93.98
2017-09-07T04:09:04.445Z,93.90
2017-09-07T04:11:39.744Z,93.82
2017-09-07T04:14:14.508Z,94.00
2017-09-07T04:16:49.429Z,94.04
2017-09-07T04:19:24.200Z,94.20
2017-09-07T04:21:59.096Z,93.89
2017-09-07T04:24:33.941Z,93.75
2017-09-07T04:27:08.461Z,93.81
2017-09-07T04:29:43.332Z,93.83
2017-09-07T04:32:18.064Z,93.87
2017-09-07T04:34:52.725Z,93.71
2017-09-07T04:37:27.472Z,93.62
2017-09-07T04:40:02.296Z,93.52
2017-09-07T04:42:36.937Z,93.75
2017-09-07T04:45:11.470Z,93.57
2017-09-07T04:47:46.165Z,93.62
2017-09-07T04:50:20.885Z,93.58
2017-09-07T04:52:55.540Z,93.75
2017-09-07T04:55:29.965Z,93.68
2017-09-07T04:58:04.705Z,93.72
2017-09-07T05:00:39.530Z,93.74
2017-09-07T05:03:14.330Z,93.46
2017-09-07T05:05:48.888Z,93.57
2017-09-07T05:08:23.613Z,93.74
2017-09-07T05:10:58.597Z,93.75
2017-09-07T05:13:33.240Z,93.65
2017-09-07T05:16:08.048Z,93.88
2017-09-07T05:18:42.908Z,94.06
2017-09-07T05:21:17.657Z,94.09
2017-09-07T05:23:52.488Z,94.10
2017-09-07T05:26:27.206Z,94.25
2017-09-07T05:29:01.869Z,94.46
2017-09-07T05:31:36.674Z,94.60
2017-09-07T05:34:11.520Z,94.75
2017-09-07T05:36:46.186Z,95.08
2017-09-07T05:39:21.048Z,95.46
2017-09-07T05:41:55.396Z,95.38
2017-09-07T05:44:30.136Z,95.20
2017-09-07T05:47:04.869Z,95.31
2017-09-07T05:49:39.653Z,95.66
2017-09-07T05:52:14.572Z,95.54
2017-09-07T05:54:49.436Z,95.50
2017-09-07T05:57:24.032Z,95.51
2017-09-07T05:59:58.881Z,95.75
2017-09-07T06:02:33.484Z,95.64
2017-09-07T06:05:08.218Z,95.65
2017-09-07T06:07:42.592Z,95.24
2017-09-07T06:10:17.625Z,95.29
2017-09-07T06:12:52.366Z,95.09
2017-09-07T06:15:26.977Z,94.49
2017-09-07T06:18:01.761Z,94.58
2017-09-07T06:20:36.221Z,94.48
2017-09-07T06:23:10.839Z,94.23
2017-09-07T06:25:45.492Z,94.14
2017-09-07T06:28:20.223Z,93.75
2017-09-07T06:30:55.907Z,93.43
2017-09-07T06:33:30.557Z,93.52
2017-09-07T06:36:05.280Z,93.63
2017-09-07T06:38:40.235Z,92.92
2017-09-07T06:41:15.004Z,93.07
2017-09-07T06:43:49.888Z,93.10
2017-09-07T06:46:24.525Z,92.40
2017-09-07T06:48:59.424Z,92.02
2017-09-07T06:51:34.068Z,92.59
2017-09-07T06:54:08.804Z,92.98
2017-09-07T06:56:43.329Z,92.40
2017-09-07T06:59:18.161Z,92.19
2017-09-07T07:01:52.908Z,91.88
2017-09-07T07:04:27.592Z,91.73
2017-09-07T07:07:02.241Z,91.65
2017-09-07T07:09:38.177Z,91.89
2017-09-07T07:12:13.002Z,91.16
2017-09-07T07:14:48.804Z,90.93
2017-09-07T07:17:23.432Z,90.99
2017-09-07T07:19:58.012Z,90.59
2017-09-07T07:22:32.756Z,90.70
2017-09-07T07:25:07.438Z,90.90
2017-09-07T07:27:42.345Z,90.91
2017-09-07T07:30:17.057Z,90.41
2017-09-07T07:32:51.705Z,90.14
2017-09-07T07:35:27.722Z,88.75
2017-09-07T07:38:02.445Z,88.66
2017-09-07T07:40:37.188Z,88.09
2017-09-07T07:43:11.985Z,88.09
2017-09-07T07:45:46.612Z,87.14
2017-09-07T07:48:21.367Z,86.27
2017-09-07T07:50:56.276Z,86.97
2017-09-07T07:53:30.916Z,85.82
2017-09-07T07:56:05.685Z,86.31
2017-09-07T07:58:40.481Z,86.42
2017-09-07T08:01:15.222Z,86.23
2017-09-07T08:03:49.667Z,86.19
2017-09-07T08:06:24.517Z,86.11
2017-09-07T08:08:59.195Z,85.26
2017-09-07T08:11:34.009Z,85.58
2017-09-07T08:14:08.674Z,85.04
2017-09-07T08:16:43.385Z,85.55
2017-09-07T08:19:17.930Z,85.86
2017-09-07T08:21:52.817Z,84.06
2017-09-07T08:24:27.477Z,83.90
2017-09-07T08:27:02.005Z,83.90
2017-09-07T08:29:36.745Z,83.78
2017-09-07T08:32:11.557Z,83.50
2017-09-07T08:34:46.301Z,83.94
2017-09-07T08:37:20.917Z,84.29
2017-09-07T08:39:55.601Z,84.38
2017-09-07T08:42:30.201Z,83.65
2017-09-07T08:45:05.001Z,83.45
2017-09-07T08:47:39.797Z,82.30
2017-09-07T08:50:14.501Z,82.65
2017-09-07T08:52:49.282Z,82.17
2017-09-07T08:55:24.336Z,82.00
2017-09-07T08:57:59.065Z,79.85
2017-09-07T09:00:33.775Z,79.54
2017-09-07T09:03:08.698Z,79.41
2017-09-07T09:05:43.457Z,77.76
2017-09-07T09:08:18.100Z,77.86
2017-09-07T09:10:52.783Z,75.95
2017-09-07T09:13:27.733Z,75.60
2017-09-07T09:16:02.641Z,75.60
2017-09-07T09:18:37.369Z,76.47
2017-09-07T09:21:12.100Z,76.61
2017-09-07T09:23:46.453Z,76.06
2017-09-07T09:26:22.177Z,73.65
2017-09-07T09:28:56.937Z,73.50
2017-09-07T09:31:31.901Z,71.81
2017-09-07T09:34:06.418Z,71.29
2017-09-07T09:36:41.202Z,70.28
2017-09-07T09:39:15.892Z,70.12
2017-09-07T09:41:50.625Z,68.39
2017-09-07T09:44:25.482Z,67.36
2017-09-07T09:47:01.137Z,66.74
2017-09-07T09:49:35.856Z,66.65
2017-09-07T09:52:10.657Z,65.28
2017-09-07T09:54:45.440Z,65.75
2017-09-07T09:57:21.184Z,66.78
2017-09-07T09:59:55.801Z,67.20
2017-09-07T10:02:30.440Z,65.42
2017-09-07T10:05:05.456Z,66.84
2017-09-07T10:07:40.202Z,66.68
2017-09-07T10:10:14.720Z,66.38
2017-09-07T10:12:49.540Z,66.92
2017-09-07T10:15:24.268Z,67.08
2017-09-07T10:17:58.821Z,65.76
2017-09-07T10:20:33.432Z,67.32
2017-09-07T10:23:08.172Z,65.61
2017-09-07T10:25:43.000Z,65.79
2017-09-07T10:28:17.636Z,63.23
2017-09-07T10:30:52.380Z,65.03
2017-09-07T10:33:27.077Z,61.71
2017-09-07T10:36:01.601Z,62.45
2017-09-07T10:38:36.297Z,62.33
2017-09-07T10:41:10.993Z,60.77
2017-09-07T10:43:45.686Z,61.77
2017-09-07T10:46:21.326Z,64.13
2017-09-07T10:48:55.940Z,64.31
2017-09-07T10:51:30.649Z,63.88
2017-09-07T10:54:04.845Z,64.73
2017-09-07T10:56:39.869Z,65.70
2017-09-07T10:59:14.623Z,65.37
2017-09-07T11:01:48.773Z,65.81
2017-09-07T11:04:23.608Z,65.60
2017-09-07T11:06:58.197Z,64.73
2017-09-07T11:09:32.840Z,63.81
2017-09-07T11:12:07.479Z,62.91
2017-09-07T11:14:42.218Z,59.18
2017-09-07T11:17:17.024Z,57.23
2017-09-07T11:19:51.854Z,57.05
2017-09-07T11:22:26.510Z,58.55
2017-09-07T11:25:01.365Z,60.37
2017-09-07T11:27:37.185Z,61.29
2017-09-07T11:30:11.817Z,62.63
2017-09-07T11:32:46.554Z,62.62
2017-09-07T11:35:21.477Z,62.46
2017-09-07T11:37:56.113Z,64.28
2017-09-07T11:40:30.967Z,65.79
2017-09-07T11:43:05.847Z,66.41
2017-09-07T11:45:40.620Z,66.51
2017-09-07T11:48:15.154Z,67.36
2017-09-07T11:50:49.829Z,66.15
2017-09-07T11:53:24.398Z,66.52
2017-09-07T11:55:58.910Z,66.26
2017-09-07T11:58:33.618Z,65.59
2017-09-07T12:01:08.132Z,65.37
2017-09-07T12:03:42.848Z,65.01
2017-09-07T12:06:18.502Z,65.53
2017-09-07T12:08:53.176Z,64.02
2017-09-07T12:11:27.732Z,64.65
2017-09-07T12:14:02.437Z,62.82
2017-09-07T12:16:37.053Z,62.36
2017-09-07T12:19:11.816Z,62.71
2017-09-07T12:21:46.420Z,61.73
2017-09-07T12:24:21.332Z,62.95
2017-09-07T12:26:56.968Z,62.66
2017-09-07T12:29:31.610Z,61.40
2017-09-07T12:32:06.348Z,60.73
2017-09-07T12:34:41.165Z,59.55
2017-09-07T12:37:16.129Z,59.53
2017-09-07T12:39:50.669Z,59.13
2017-09-07T12:42:25.445Z,59.50
2017-09-07T12:45:00.220Z,59.37
2017-09-07T12:47:34.876Z,58.71
2017-09-07T12:50:09.637Z,57.90
2017-09-07T12:52:44.324Z,57.65
2017-09-07T12:55:18.967Z,56.69
2017-09-07T12:57:53.712Z,56.99
2017-09-07T13:00:28.418Z,56.54
2017-09-07T13:03:02.960Z,56.77
2017-09-07T13:05:37.589Z,57.02
2017-09-07T13:08:12.324Z,56.87
2017-09-07T13:10:46.848Z,58.35
2017-09-07T13:13:21.689Z,59.18
2017-09-07T13:15:57.305Z,59.15
2017-09-07T13:18:32.991Z,59.54
2017-09-07T13:21:08.621Z,62.12
2017-09-07T13:23:43.132Z,65.56
2017-09-07T13:26:18.784Z,67.10
2017-09-07T13:28:53.540Z,67.89
2017-09-07T13:31:28.276Z,68.41
2017-09-07T13:34:03.247Z,69.34
2017-09-07T13:36:38.200Z,67.70
2017-09-07T13:39:12.952Z,68.95
2017-09-07T13:41:47.785Z,68.87
2017-09-07T13:44:22.717Z,69.82
2017-09-07T13:46:57.500Z,69.87
2017-09-07T13:49:32.808Z,68.36
2017-09-07T13:52:07.525Z,68.33
2017-09-07T13:54:42.286Z,67.36
2017-09-07T13:57:17.112Z,67.46
2017-09-07T13:59:51.712Z,65.71
2017-09-07T14:02:26.437Z,64.41
2017-09-07T14:05:01.393Z,64.45
2017-09-07T14:07:36.120Z,63.01
2017-09-07T14:10:10.730Z,61.32
2017-09-07T14:12:45.378Z,62.29
2017-09-07T14:15:20.207Z,60.26
2017-09-07T14:17:54.909Z,59.79
2017-09-07T14:20:29.636Z,58.78
2017-09-07T14:23:04.173Z,59.78
2017-09-07T14:25:38.897Z,59.65
2017-09-07T14:28:13.726Z,59.23
2017-09-07T14:30:48.452Z,58.34
2017-09-07T14:33:23.136Z,59.33
2017-09-07T14:35:57.817Z,58.82
2017-09-07T14:38:32.538Z,56.22
2017-09-07T14:41:08.308Z,57.28
2017-09-07T14:43:43.277Z,57.61
2017-09-07T14:46:18.353Z,58.81
2017-09-07T14:48:53.340Z,58.74
2017-09-07T14:51:28.380Z,60.16
2017-09-07T14:54:02.787Z,60.15
2017-09-07T14:56:37.476Z,59.97
2017-09-07T14:59:12.773Z,60.36
2017-09-07T15:01:48.130Z,60.41
2017-09-07T15:04:23.476Z,61.21
2017-09-07T15:06:58.651Z,61.17
2017-09-07T15:09:33.612Z,61.73
2017-09-07T15:12:08.289Z,62.28
2017-09-07T15:14:43.885Z,62.86
2017-09-07T15:17:18.792Z,63.34
2017-09-07T15:19:54.702Z,63.03
2017-09-07T15:22:30.461Z,62.30
2017-09-07T15:25:05.025Z,63.15
2017-09-07T15:27:39.845Z,62.74
2017-09-07T15:30:17.058Z,63.20
2017-09-07T15:32:51.704Z,63.12
2017-09-07T15:35:26.409Z,63.88
2017-09-07T15:38:03.492Z,63.59
2017-09-07T15:40:40.170Z,63.27
2017-09-07T15:43:14.821Z,63.35
2017-09-07T15:45:49.668Z,63.89
2017-09-07T15:48:24.184Z,63.54
2017-09-07T15:50:58.889Z,63.74
2017-09-07T15:53:33.716Z,64.12
2017-09-07T15:56:09.457Z,64.79
2017-09-07T15:58:44.194Z,65.26
2017-09-07T16:01:18.919Z,65.23
2017-09-07T16:03:53.676Z,65.60
2017-09-07T16:06:28.377Z,65.68
2017-09-07T16:09:02.930Z,66.13
2017-09-07T16:11:37.854Z,66.66
2017-09-07T16:14:12.569Z,66.65
2017-09-07T16:16:47.241Z,66.92
2017-09-07T16:19:21.985Z,66.43
2017-09-07T16:21:58.102Z,66.56
2017-09-07T16:24:32.604Z,66.97
2017-09-07T16:27:07.521Z,67.27
2017-09-07T16:29:41.969Z,67.22
2017-09-07T16:32:16.813Z,67.12
2017-09-07T16:34:51.429Z,68.47
2017-09-07T16:37:26.176Z,69.09
2017-09-07T16:40:00.857Z,69.82
2017-09-07T16:42:35.505Z,70.08
2017-09-07T16:45:10.270Z,70.51
2017-09-07T16:47:44.916Z,69.94
2017-09-07T16:50:19.718Z,70.83
2017-09-07T16:52:54.292Z,71.25
2017-09-07T16:55:29.025Z,70.53
2017-09-07T16:58:03.676Z,70.06
2017-09-07T17:00:38.641Z,69.80
2017-09-07T17:03:13.237Z,69.94
2017-09-07T17:05:47.964Z,69.78
2017-09-07T17:08:22.972Z,69.24
2017-09-07T17:10:57.525Z,69.62
2017-09-07T17:13:32.808Z,68.94
2017-09-07T17:16:08.048Z,68.98
2017-09-07T17:18:42.799Z,68.49
2017-09-07T17:21:17.560Z,68.76
2017-09-07T17:23:53.413Z,68.82
2017-09-07T17:26:28.093Z,69.38
2017-09-07T17:29:02.824Z,69.33
2017-09-07T17:31:37.570Z,67.55
2017-09-07T17:34:12.180Z,67.80
2017-09-07T17:36:47.052Z,66.82
2017-09-07T17:39:21.781Z,67.46
2017-09-07T17:41:56.412Z,66.99
2017-09-07T17:44:31.169Z,66.00
2017-09-07T17:47:05.864Z,65.61
2017-09-07T17:49:41.245Z,66.59
2017-09-07T17:52:15.749Z,66.34
2017-09-07T17:54:50.600Z,66.75
2017-09-07T17:57:25.184Z,67.20
2017-09-07T17:59:59.910Z,67.50
2017-09-07T18:02:34.640Z,67.66
2017-09-07T18:05:09.264Z,68.03
2017-09-07T18:07:44.020Z,68.80
2017-09-07T18:10:18.845Z,69.78
2017-09-07T18:12:53.517Z,69.72
2017-09-07T18:15:28.266Z,70.12
2017-09-07T18:18:03.144Z,70.13
2017-09-07T18:20:39.012Z,70.27
2017-09-07T18:23:13.792Z,70.51
2017-09-07T18:25:48.504Z,70.51
2017-09-07T18:28:23.026Z,70.62
2017-09-07T18:30:57.976Z,71.19
2017-09-07T18:33:32.809Z,71.61
2017-09-07T18:36:07.629Z,71.51
2017-09-07T18:38:42.365Z,71.57
2017-09-07T18:41:18.592Z,71.24
2017-09-07T18:43:53.586Z,71.13
2017-09-07T18:46:28.323Z,71.14
2017-09-07T18:49:03.029Z,70.54
2017-09-07T18:51:37.894Z,71.14
2017-09-07T18:54:12.513Z,71.42
2017-09-07T18:56:47.379Z,71.48
2017-09-07T18:59:22.064Z,71.22
2017-09-07T19:01:57.038Z,71.51
2017-09-07T19:04:31.649Z,71.70
2017-09-07T19:07:06.444Z,71.92
2017-09-07T19:09:41.156Z,71.94
2017-09-07T19:12:16.063Z,71.75
2017-09-07T19:14:51.041Z,71.80
2017-09-07T19:17:26.091Z,71.89
2017-09-07T19:20:00.937Z,71.54
2017-09-07T19:22:35.638Z,71.72
2017-09-07T19:25:10.567Z,72.14
2017-09-07T19:27:45.205Z,72.54
2017-09-07T19:30:20.242Z,72.46
2017-09-07T19:32:55.209Z,72.89
2017-09-07T19:35:30.749Z,72.83
2017-09-07T19:38:05.612Z,73.05
2017-09-07T19:40:40.305Z,72.83
2017-09-07T19:43:15.269Z,73.25
2017-09-07T19:45:50.165Z,73.21
2017-09-07T19:48:24.852Z,74.40
2017-09-07T19:50:59.708Z,74.07
2017-09-07T19:53:34.415Z,74.38
2017-09-07T19:56:09.501Z,74.14
2017-09-07T19:58:44.117Z,74.19
2017-09-07T20:01:19.713Z,74.44
2017-09-07T20:03:54.581Z,74.40
2017-09-07T20:06:29.317Z,74.37
2017-09-07T20:09:03.624Z,74.27
2017-09-07T20:11:38.836Z,74.39
2017-09-07T20:14:13.573Z,74.77
2017-09-07T20:16:48.448Z,75.29
2017-09-07T20:19:23.276Z,75.72
2017-09-07T20:21:57.981Z,75.78
2017-09-07T20:24:32.721Z,75.69
2017-09-07T20:27:07.405Z,75.60
2017-09-07T20:29:42.490Z,75.31
2017-09-07T20:32:17.548Z,75.26
2017-09-07T20:34:52.480Z,75.29
2017-09-07T20:37:27.617Z,75.46
2017-09-07T20:40:02.002Z,76.09
2017-09-07T20:42:37.060Z,76.37
2017-09-07T20:45:11.912Z,76.86
2017-09-07T20:47:46.488Z,76.68
2017-09-07T20:50:21.272Z,77.07
2017-09-07T20:52:56.072Z,76.71
2017-09-07T20:55:30.809Z,76.96
2017-09-07T20:58:05.633Z,77.21
2017-09-07T21:00:40.252Z,76.64
2017-09-07T21:03:15.014Z,77.08
2017-09-07T21:05:49.649Z,77.08
2017-09-07T21:08:24.463Z,76.88
2017-09-07T21:10:59.300Z,77.44
2017-09-07T21:13:33.928Z,77.18
2017-09-07T21:16:08.664Z,76.73
2017-09-07T21:18:43.584Z,76.57
2017-09-07T21:21:19.476Z,76.45
2017-09-07T21:23:54.837Z,76.84
2017-09-07T21:26:29.965Z,76.43
2017-09-07T21:29:04.849Z,76.39
2017-09-07T21:31:39.603Z,76.77
2017-09-07T21:34:14.423Z,76.59
2017-09-07T21:36:49.127Z,76.31
2017-09-07T21:39:23.864Z,76.35
2017-09-07T21:41:58.684Z,76.22
2017-09-07T21:44:33.515Z,76.64
2017-09-07T21:47:08.225Z,76.65
2017-09-07T21:49:43.583Z,76.75
2017-09-07T21:52:18.205Z,76.74
2017-09-07T21:54:52.968Z,76.79
2017-09-07T21:57:27.408Z,77.09
2017-09-07T22:00:02.174Z,77.42
2017-09-07T22:02:36.720Z,77.68
2017-09-07T22:05:11.520Z,77.59
2017-09-07T22:07:46.290Z,77.76
2017-09-07T22:10:20.984Z,77.79
2017-09-07T22:12:56.814Z,77.63
2017-09-07T22:15:31.465Z,77.71
2017-09-07T22:18:06.758Z,77.86
2017-09-07T22:20:42.107Z,78.06
2017-09-07T22:23:16.969Z,78.06
2017-09-07T22:25:51.969Z,78.06
2017-09-07T22:28:26.664Z,78.44
2017-09-07T22:31:01.484Z,78.50
2017-09-07T22:33:36.211Z,78.51
2017-09-07T22:36:12.753Z,78.41
2017-09-07T22:38:47.308Z,79.25
2017-09-07T22:41:22.160Z,79.28
2017-09-07T22:43:57.064Z,79.16
2017-09-07T22:46:32.000Z,79.24
2017-09-07T22:49:06.717Z,79.29
2017-09-07T22:51:41.579Z,79.40
2017-09-07T22:54:16.240Z,79.11
2017-09-07T22:56:51.134Z,78.66
2017-09-07T22:59:25.885Z,78.66
2017-09-07T23:02:00.709Z,78.61
2017-09-07T23:04:35.396Z,78.39
2017-09-07T23:07:10.105Z,78.03
2017-09-07T23:09:44.801Z,78.23
2017-09-07T23:12:19.476Z,78.04
2017-09-07T23:14:54.463Z,77.92
2017-09-07T23:17:30.156Z,78.00
2017-09-07T23:20:05.742Z,78.03
2017-09-07T23:22:40.422Z,77.91
2017-09-07T23:25:15.167Z,78.22
2017-09-07T23:27:49.837Z,78.34
2017-09-07T23:30:24.676Z,78.73
2017-09-07T23:32:59.581Z,77.99
2017-09-07T23:35:34.208Z,78.36
2017-09-07T23:38:08.913Z,78.13
2017-09-07T23:40:43.536Z,78.08
2017-09-07T23:43:18.265Z,78.22
2017-09-07T23:45:53.096Z,78.70
2017-09-07T23:48:27.965Z,78.82
2017-09-07T23:51:02.852Z,78.89
2017-09-07T23:53:38.204Z,79.09
2017-09-07T23:56:13.961Z,79.26
2017-09-07T23:58:49.341Z,79.50
